ADDS METAR Data INFO
IDs: Format: Raw Decoded Include TAF

Data at: 0303 UTC 21 Oct 2017

KSUA 210255Z AUTO 09013G19KT 10SM CLR 27/21 A3010 RMK AO2
KSUA 210235Z AUTO 08013G21KT 10SM SCT032 SCT044 SCT055 27/21 A3010 RMK AO2
KSUA 210215Z AUTO 08014G20KT 10SM SCT032 SCT042 BKN050 27/22 A3010 RMK AO2
KSUA 210150Z 07015KT 6SM SCT034 28/22 A3009
KSUA 210050Z 08014KT 7SM SCT030 28/22 A3008
KSUA 202350Z 09014KT 7SM SCT033 28/22 A3007
KSUA 202250Z 09017G24KT 7SM SCT035 29/22 A3004
KSUA 202150Z 09017G24KT 7SM SCT035 29/22 A3004
KSUA 202050Z 07017G25KT 7SM SCT025 29/23 A3004
KSUA 201950Z 07017G25KT 7SM SCT020 29/23 A3004
KSUA 201850Z 07016G24KKT 7SM VCSH SCT015 BKN025 30/24 A3005
KSUA 201747Z 07016G24KKT 7SM VCSH SCT015 BKN030 30/24 A3007
KSUA 201547Z 06012G21KT 6SM VCSH SCT015 BKN030 29/24 A3010
KSUA 201447Z 06012G18KT 5SM -RA SCT015 BKN030 29/24 A3010
KSUA 201347Z 09010G18KT 5SM -RA SCT015 BKN030 28/24 A3010
KSUA 201247Z 10010KT 5SM -RA SCT010 BKN020 25/25 A3009
KSUA 201147Z 10012KT 4SM RA SCT015 BKN025 25/25 A3007
KSUA 201050Z 07012KT 7SM VCSH SCT025 SCT050 27/24 A3007
KSUA 201035Z AUTO 07009KT 10SM SCT039 BKN060 OVC110 26/24 A3007 RMK AO2
KSUA 201015Z AUTO 07011G15KT 10SM SCT039 BKN060 OVC110 25/25 A3006 RMK AO2
KSUA 200955Z AUTO 06015G19KT 7SM SCT033 BKN043 OVC085 25/23 A3006 RMK AO2
KSUA 200935Z AUTO 06015G20KT 10SM SCT060 SCT085 BKN110 26/24 A3006 RMK AO2
KSUA 200915Z AUTO 06011G21KT 10SM SCT019 SCT030 SCT060 25/23 A3005 RMK AO2
KSUA 200855Z AUTO 06010KT 10SM SCT019 SCT026 SCT030 26/24 A3005 RMK AO2
KSUA 200835Z AUTO 07011KT 10SM SCT019 SCT026 SCT042 26/25 A3005 RMK AO2
KSUA 200815Z AUTO 07013G16KT 10SM SCT046 26/23 A3005 RMK AO2
KSUA 200755Z AUTO 06013G21KT 10SM SCT021 SCT030 BKN046 26/24 A3004 RMK AO2
KSUA 200735Z AUTO 07013G22KT 7SM -RA SCT018 SCT028 BKN046 26/24 A3005 RMK AO2
KSUA 200715Z AUTO 07011G17KT 10SM SCT023 SCT030 BKN046 27/23 A3005 RMK AO2
KSUA 200655Z AUTO 07013G20KT 10SM SCT023 SCT032 27/23 A3006 RMK AO2
KSUA 200635Z AUTO 06015G20KT 10SM SCT023 SCT032 27/23 A3006 RMK AO2
KSUA 200615Z AUTO 05012G20KT 10SM SCT023 SCT029 SCT035 27/23 A3006 RMK AO2
KSUA 200555Z AUTO 06013G20KT 10SM SCT025 SCT029 SCT035 27/23 A3006 RMK AO2
KSUA 200535Z AUTO 06012G15KT 10SM SCT025 SCT031 BKN055 27/23 A3007 RMK AO2
KSUA 200515Z AUTO 07016G20KT 10SM SCT027 SCT038 BKN060 27/23 A3007 RMK AO2
KSUA 200455Z AUTO 06014G19KT 10SM SCT024 SCT033 SCT045 27/23 A3007 RMK AO2
KSUA 200435Z AUTO 07016G21KT 10SM SCT026 SCT035 27/23 A3007 RMK AO2
KSUA 200415Z AUTO 07016G19KT 10SM SCT024 SCT029 SCT039 27/23 A3007 RMK AO2
KSUA 200355Z AUTO 07013G19KT 10SM SCT026 BKN032 BKN039 27/23 A3007 RMK AO2
KSUA 200335Z AUTO 08011KT 10SM SCT026 SCT034 BKN042 27/23 A3008 RMK AO2
KSUA 200315Z AUTO 07017G21KT 10SM SCT024 SCT036 SCT060 27/24 A3008 RMK AO2
KSUA 200255Z AUTO 06013G17KT 10SM SCT022 SCT029 BKN065 27/24 A3008 RMK AO2
KSUA 200235Z AUTO 05014G21KT 10SM SCT029 SCT045 BKN049 26/23 A3008 RMK AO2
KSUA 200215Z AUTO 04013G18KT 10SM SCT026 SCT032 BKN060 27/23 A3007 RMK AO2
KSUA 200047Z 05012KT 7SM VCSH SCT020 27/24 A3005
KSUA 192347Z 05012G18KT 7SM VCSH SCT020 27/23 A3005
KSUA 192247Z 05012G18KT 5SM -RA SCT020 28/23 A3003
KSUA 192047Z 05012KT 7SM VCSH SCT020 29/23 A3003
KSUA 191947Z 05012G20KT 5SM SHRA SCT020 BKN030 28/24 A3002
KSUA 191847Z 04015G20KT 5SM RA SCT020 BKN030 29/25 A3002
KSUA 191747Z 08010KT 7SM SCT026 30/25 A3004
KSUA 191650Z 08010KT 7SM SCT026 SCT050 30/24 A3006
KSUA 191547Z 08010KT 7SM SCT026 SCT065 29/25 A3007